Accueil
METAR-TAF:

METAR-TAF

Aéroports :

Aéroport de Chambéry-Savoie

Chambery / Aix-Les-Bains, France

latitude: 45-39N, longitude: 005-53E, altitude: 235 m

Observation

Le bulletin a été fait il y a 15 minutes, à 15:00 UTC
Vent 4 kt de nord/nord-ouest, variant entre nord-ouest et nord
Température 18°C
Humidité 64%
Pression 1025 hPa
Visibilité 10 km ou plus
pas de nuages en-dessous de 1500 mètres et pas de cumulonimbus.

METAR: LFLB 191500Z AUTO 34004KT 310V010 CAVOK 18/11 Q1025 NOSIG

Heure: 17:15 (15:15 UTC)

Prévision

Le bulletin a été fait il y a 1 heure et 15 minutes, à 14:00 UTC
Prévision valable du 19 à 15 UTC au 20 à 15 UTC
Vent 3 kt de direction variable
Visibilité 10 km ou plus
pas de nuages en-dessous de 1500 mètres et pas de cumulonimbus.
Evoluant progressivement
du 20 à 06 UTC au 20 à 08 UTC
Vent 10 kt de sud/sud-ouest

TAF: LFLB 191400Z 1915/2015 VRB03KT CAVOK BECMG 2006/2008 20010KT

Observations et prévisions météorologiques de plus de 4000 aéroports (messages METAR et TAF).

Les stations disponibles sont représentées par des disques jaunes et rouges sur la carte.

Passer la souris dessus pour voir le nom de la station.

Cliquer dessus pour voir les observations et prévisions météorologiques.

Pour changer de carte: cliquez sur les boutons verts avec une croix noire pour zoomer, sur le bouton vert avec un tiret pour effectuer un zoom arrière, ou sur les flèches vertes pour les cartes adjacentes.


METAR-TAF: